sensor_id;sensor_type;location;lat;lon;timestamp;pressure;altitude;pressure_sealevel;temperature
27826;BMP280;15077;49.704;9.908;2022-12-18T00:01:35;99417.81;;;-3.42
27826;BMP280;15077;49.704;9.908;2022-12-18T00:04:07;99426.84;;;-3.42
27826;BMP280;15077;49.704;9.908;2022-12-18T00:06:37;99414.41;;;-3.44
27826;BMP280;15077;49.704;9.908;2022-12-18T00:09:03;99415.28;;;-3.43
27826;BMP280;15077;49.704;9.908;2022-12-18T00:11:31;99416.09;;;-3.43
27826;BMP280;15077;49.704;9.908;2022-12-18T00:13:59;99415.28;;;-3.43
27826;BMP280;15077;49.704;9.908;2022-12-18T00:16:29;99417.69;;;-3.45
27826;BMP280;15077;49.704;9.908;2022-12-18T00:19:01;99417.66;;;-3.46
27826;BMP280;15077;49.704;9.908;2022-12-18T00:21:30;99417.59;;;-3.48
27826;BMP280;15077;49.704;9.908;2022-12-18T00:23:56;99416.69;;;-3.50
27826;BMP280;15077;49.704;9.908;2022-12-18T00:26:26;99419.16;;;-3.50
27826;BMP280;15077;49.704;9.908;2022-12-18T00:28:54;99416.63;;;-3.51
27826;BMP280;15077;49.704;9.908;2022-12-18T00:31:23;99425.69;;;-3.52
27826;BMP280;15077;49.704;9.908;2022-12-18T00:33:50;99430.66;;;-3.52
27826;BMP280;15077;49.704;9.908;2022-12-18T00:36:20;99435.63;;;-3.52
27826;BMP280;15077;49.704;9.908;2022-12-18T00:38:48;99430.66;;;-3.52
27826;BMP280;15077;49.704;9.908;2022-12-18T00:41:16;99434.78;;;-3.52
27826;BMP280;15077;49.704;9.908;2022-12-18T00:44:01;99438.00;;;-3.55
27826;BMP280;15077;49.704;9.908;2022-12-18T00:46:27;99431.34;;;-3.56
27826;BMP280;15077;49.704;9.908;2022-12-18T00:48:53;99434.63;;;-3.57
27826;BMP280;15077;49.704;9.908;2022-12-18T00:51:19;99433.03;;;-3.55
27826;BMP280;15077;49.704;9.908;2022-12-18T00:53:45;99426.38;;;-3.56
27826;BMP280;15077;49.704;9.908;2022-12-18T00:56:15;99426.38;;;-3.56
27826;BMP280;15077;49.704;9.908;2022-12-18T00:58:41;99442.13;;;-3.55
27826;BMP280;15077;49.704;9.908;2022-12-18T01:01:07;99439.53;;;-3.58
27826;BMP280;15077;49.704;9.908;2022-12-18T01:03:34;99441.19;;;-3.57
27826;BMP280;15077;49.704;9.908;2022-12-18T01:06:10;99448.63;;;-3.57
27826;BMP280;15077;49.704;9.908;2022-12-18T01:08:38;99441.13;;;-3.59
27826;BMP280;15077;49.704;9.908;2022-12-18T01:11:19;99444.47;;;-3.58
27826;BMP280;15077;49.704;9.908;2022-12-18T01:13:47;99451.00;;;-3.60
27826;BMP280;15077;49.704;9.908;2022-12-18T01:16:16;99465.03;;;-3.61
27826;BMP280;15077;49.704;9.908;2022-12-18T01:18:44;99460.06;;;-3.61
27826;BMP280;15077;49.704;9.908;2022-12-18T01:21:16;99458.38;;;-3.62
27826;BMP280;15077;49.704;9.908;2022-12-18T01:23:42;99458.31;;;-3.63
27826;BMP280;15077;49.704;9.908;2022-12-18T01:26:12;99442.63;;;-3.64
27826;BMP280;15077;49.704;9.908;2022-12-18T01:28:40;99443.47;;;-3.63
27826;BMP280;15077;49.704;9.908;2022-12-18T01:31:33;99450.84;;;-3.65
27826;BMP280;15077;49.704;9.908;2022-12-18T01:34:05;99450.84;;;-3.65
27826;BMP280;15077;49.704;9.908;2022-12-18T01:36:35;99458.22;;;-3.66
27826;BMP280;15077;49.704;9.908;2022-12-18T01:39:08;99477.19;;;-3.67
27826;BMP280;15077;49.704;9.908;2022-12-18T01:41:36;99481.25;;;-3.69
27826;BMP280;15077;49.704;9.908;2022-12-18T01:50:10;99481.59;;;-3.82
27826;BMP280;15077;49.704;9.908;2022-12-18T01:52:37;99472.41;;;-3.84
27826;BMP280;15077;49.704;9.908;2022-12-18T01:55:06;99469.06;;;-3.86
27826;BMP280;15077;49.704;9.908;2022-12-18T01:57:32;99468.25;;;-3.85
27826;BMP280;15077;49.704;9.908;2022-12-18T02:00:08;99462.41;;;-3.87
27826;BMP280;15077;49.704;9.908;2022-12-18T02:02:34;99460.75;;;-3.87
27826;BMP280;15077;49.704;9.908;2022-12-18T02:05:02;99464.09;;;-3.86
27826;BMP280;15077;49.704;9.908;2022-12-18T02:10:47;99469.84;;;-3.87
27826;BMP280;15077;49.704;9.908;2022-12-18T02:23:15;99467.06;;;-3.94
27826;BMP280;15077;49.704;9.908;2022-12-18T02:29:15;99463.72;;;-3.96
27826;BMP280;15077;49.704;9.908;2022-12-18T02:31:52;99462.78;;;-3.98
27826;BMP280;15077;49.704;9.908;2022-12-18T02:34:28;99450.34;;;-4.00
27826;BMP280;15077;49.704;9.908;2022-12-18T02:36:55;99453.56;;;-4.02
27826;BMP280;15077;49.704;9.908;2022-12-18T02:39:25;99454.34;;;-4.03
27826;BMP280;15077;49.704;9.908;2022-12-18T02:41:52;99463.47;;;-4.02
27826;BMP280;15077;49.704;9.908;2022-12-18T02:44:18;99456.06;;;-4.02
27826;BMP280;15077;49.704;9.908;2022-12-18T02:46:51;99457.66;;;-4.03
27826;BMP280;15077;49.704;9.908;2022-12-18T02:49:45;99462.63;;;-4.03
27826;BMP280;15077;49.704;9.908;2022-12-18T02:55:30;99469.16;;;-4.05
27826;BMP280;15077;49.704;9.908;2022-12-18T03:03:52;99471.34;;;-4.12
27826;BMP280;15077;49.704;9.908;2022-12-18T03:06:55;99476.94;;;-4.16
27826;BMP280;15077;49.704;9.908;2022-12-18T03:09:35;99485.16;;;-4.17
27826;BMP280;15077;49.704;9.908;2022-12-18T03:12:30;99488.44;;;-4.18
27826;BMP280;15077;49.704;9.908;2022-12-18T03:15:04;99490.97;;;-4.17
27826;BMP280;15077;49.704;9.908;2022-12-18T03:17:34;99481.06;;;-4.17
27826;BMP280;15077;49.704;9.908;2022-12-18T03:20:10;99469.53;;;-4.16
27826;BMP280;15077;49.704;9.908;2022-12-18T03:22:38;99471.13;;;-4.18
27826;BMP280;15077;49.704;9.908;2022-12-18T03:25:13;99477.72;;;-4.17
27826;BMP280;15077;49.704;9.908;2022-12-18T03:27:47;99479.38;;;-4.18
27826;BMP280;15077;49.704;9.908;2022-12-18T03:30:16;99487.63;;;-4.17
27826;BMP280;15077;49.704;9.908;2022-12-18T03:32:58;99476.13;;;-4.17
27826;BMP280;15077;49.704;9.908;2022-12-18T03:35:34;99475.25;;;-4.17
27826;BMP280;15077;49.704;9.908;2022-12-18T03:38:00;99475.25;;;-4.17
27826;BMP280;15077;49.704;9.908;2022-12-18T03:40:59;99476.06;;;-4.18
27826;BMP280;15077;49.704;9.908;2022-12-18T03:46:30;99476.06;;;-4.18
27826;BMP280;15077;49.704;9.908;2022-12-18T03:51:52;99474.25;;;-4.22
27826;BMP280;15077;49.704;9.908;2022-12-18T03:54:21;99475.03;;;-4.23
27826;BMP280;15077;49.704;9.908;2022-12-18T03:56:57;99485.03;;;-4.20
27826;BMP280;15077;49.704;9.908;2022-12-18T03:59:25;99489.88;;;-4.23
27826;BMP280;15077;49.704;9.908;2022-12-18T04:01:53;99483.31;;;-4.23
27826;BMP280;15077;49.704;9.908;2022-12-18T04:04:23;99485.72;;;-4.24
27826;BMP280;15077;49.704;9.908;2022-12-18T04:06:50;99487.41;;;-4.23
27826;BMP280;15077;49.704;9.908;2022-12-18T04:09:19;99493.16;;;-4.24
27826;BMP280;15077;49.704;9.908;2022-12-18T04:11:46;99487.34;;;-4.25
27826;BMP280;15077;49.704;9.908;2022-12-18T04:14:12;99482.34;;;-4.26
27826;BMP280;15077;49.704;9.908;2022-12-18T04:16:38;99487.28;;;-4.26
27826;BMP280;15077;49.704;9.908;2022-12-18T04:19:05;99488.09;;;-4.27
27826;BMP280;15077;49.704;9.908;2022-12-18T04:21:30;99481.44;;;-4.28
27826;BMP280;15077;49.704;9.908;2022-12-18T04:23:56;99477.25;;;-4.29
27826;BMP280;15077;49.704;9.908;2022-12-18T04:26:22;99487.97;;;-4.30
27826;BMP280;15077;49.704;9.908;2022-12-18T04:28:48;99487.97;;;-4.30
27826;BMP280;15077;49.704;9.908;2022-12-18T04:31:14;99487.06;;;-4.32
27826;BMP280;15077;49.704;9.908;2022-12-18T04:33:39;99491.16;;;-4.33
27826;BMP280;15077;49.704;9.908;2022-12-18T04:36:05;99495.28;;;-4.33
27826;BMP280;15077;49.704;9.908;2022-12-18T04:38:32;99488.63;;;-4.34
27826;BMP280;15077;49.704;9.908;2022-12-18T04:40:59;99488.63;;;-4.34
27826;BMP280;15077;49.704;9.908;2022-12-18T04:43:24;99477.84;;;-4.36
27826;BMP280;15077;49.704;9.908;2022-12-18T04:45:50;99486.03;;;-4.37
27826;BMP280;15077;49.704;9.908;2022-12-18T04:48:16;99495.03;;;-4.39
27826;BMP280;15077;49.704;9.908;2022-12-18T04:50:41;99504.94;;;-4.39
27826;BMP280;15077;49.704;9.908;2022-12-18T04:53:07;99501.53;;;-4.41
27826;BMP280;15077;49.704;9.908;2022-12-18T04:55:33;99508.19;;;-4.40
27826;BMP280;15077;49.704;9.908;2022-12-18T04:57:59;99509.84;;;-4.40
27826;BMP280;15077;49.704;9.908;2022-12-18T05:00:24;99508.97;;;-4.41
27826;BMP280;15077;49.704;9.908;2022-12-18T05:02:50;99514.72;;;-4.42
27826;BMP280;15077;49.704;9.908;2022-12-18T05:05:17;99512.31;;;-4.40
27826;BMP280;15077;49.704;9.908;2022-12-18T05:07:44;99511.44;;;-4.41
27826;BMP280;15077;49.704;9.908;2022-12-18T05:10:10;99494.97;;;-4.40
27826;BMP280;15077;49.704;9.908;2022-12-18T05:12:38;99486.75;;;-4.39
27826;BMP280;15077;49.704;9.908;2022-12-18T05:15:29;99484.22;;;-4.41
27826;BMP280;15077;49.704;9.908;2022-12-18T05:17:58;99493.28;;;-4.41
27826;BMP280;15077;49.704;9.908;2022-12-18T05:20:24;99500.72;;;-4.41
27826;BMP280;15077;49.704;9.908;2022-12-18T05:22:52;99499.88;;;-4.42
27826;BMP280;15077;49.704;9.908;2022-12-18T05:25:18;99513.97;;;-4.39
27826;BMP280;15077;49.704;9.908;2022-12-18T05:27:46;99499.25;;;-4.36
27826;BMP280;15077;49.704;9.908;2022-12-18T05:30:13;99495.16;;;-4.36
27826;BMP280;15077;49.704;9.908;2022-12-18T05:32:39;99508.44;;;-4.34
27826;BMP280;15077;49.704;9.908;2022-12-18T05:35:09;99521.69;;;-4.32
27826;BMP280;15077;49.704;9.908;2022-12-18T05:37:35;99525.81;;;-4.33
27826;BMP280;15077;49.704;9.908;2022-12-18T05:40:03;99522.63;;;-4.30
27826;BMP280;15077;49.704;9.908;2022-12-18T05:42:30;99522.63;;;-4.30
27826;BMP280;15077;49.704;9.908;2022-12-18T05:44:56;99531.72;;;-4.29
27826;BMP280;15077;49.704;9.908;2022-12-18T05:47:22;99531.72;;;-4.29
27826;BMP280;15077;49.704;9.908;2022-12-18T05:49:48;99537.53;;;-4.29
27826;BMP280;15077;49.704;9.908;2022-12-18T05:52:13;99535.00;;;-4.30
27826;BMP280;15077;49.704;9.908;2022-12-18T05:54:39;99536.56;;;-4.32
27826;BMP280;15077;49.704;9.908;2022-12-18T05:57:05;99534.81;;;-4.34
27826;BMP280;15077;49.704;9.908;2022-12-18T05:59:31;99543.78;;;-4.36
27826;BMP280;15077;49.704;9.908;2022-12-18T06:01:57;99529.63;;;-4.40
27826;BMP280;15077;49.704;9.908;2022-12-18T06:04:23;99536.19;;;-4.41
27826;BMP280;15077;49.704;9.908;2022-12-18T06:06:48;99533.66;;;-4.42
27826;BMP280;15077;49.704;9.908;2022-12-18T06:09:14;99541.94;;;-4.42
27826;BMP280;15077;49.704;9.908;2022-12-18T06:11:40;99545.19;;;-4.43
27826;BMP280;15077;49.704;9.908;2022-12-18T06:14:06;99551.84;;;-4.42
27826;BMP280;15077;49.704;9.908;2022-12-18T06:16:32;99551.97;;;-4.39
27826;BMP280;15077;49.704;9.908;2022-12-18T06:19:00;99557.03;;;-4.36
27826;BMP280;15077;49.704;9.908;2022-12-18T06:21:27;99550.50;;;-4.34
27826;BMP280;15077;49.704;9.908;2022-12-18T06:23:54;99553.03;;;-4.33
27826;BMP280;15077;49.704;9.908;2022-12-18T06:26:19;99547.38;;;-4.30
27826;BMP280;15077;49.704;9.908;2022-12-18T06:28:45;99549.91;;;-4.29
27826;BMP280;15077;49.704;9.908;2022-12-18T06:31:11;99547.44;;;-4.29
27826;BMP280;15077;49.704;9.908;2022-12-18T06:33:38;99549.09;;;-4.28
27826;BMP280;15077;49.704;9.908;2022-12-18T06:36:09;99557.41;;;-4.27
27826;BMP280;15077;49.704;9.908;2022-12-18T06:38:37;99559.88;;;-4.27
27826;BMP280;15077;49.704;9.908;2022-12-18T06:41:13;99552.50;;;-4.26
27826;BMP280;15077;49.704;9.908;2022-12-18T06:43:39;99565.72;;;-4.25
27826;BMP280;15077;49.704;9.908;2022-12-18T06:46:05;99560.00;;;-4.24
27826;BMP280;15077;49.704;9.908;2022-12-18T06:48:32;99561.72;;;-4.22
27826;BMP280;15077;49.704;9.908;2022-12-18T06:50:58;99559.31;;;-4.20
27826;BMP280;15077;49.704;9.908;2022-12-18T06:53:25;99563.59;;;-4.16
27826;BMP280;15077;49.704;9.908;2022-12-18T06:55:50;99566.19;;;-4.13
27826;BMP280;15077;49.704;9.908;2022-12-18T06:58:16;99568.78;;;-4.10
27826;BMP280;15077;49.704;9.908;2022-12-18T07:00:43;99570.63;;;-4.06
27826;BMP280;15077;49.704;9.908;2022-12-18T07:03:10;99565.00;;;-4.02
27826;BMP280;15077;49.704;9.908;2022-12-18T07:05:40;99570.97;;;-3.97
27826;BMP280;15077;49.704;9.908;2022-12-18T07:08:06;99576.03;;;-3.94
27826;BMP280;15077;49.704;9.908;2022-12-18T07:10:32;99577.88;;;-3.90
27826;BMP280;15077;49.704;9.908;2022-12-18T07:12:58;99573.03;;;-3.87
27826;BMP280;15077;49.704;9.908;2022-12-18T07:15:24;99570.72;;;-3.83
27826;BMP280;15077;49.704;9.908;2022-12-18T07:17:49;99575.78;;;-3.80
27826;BMP280;15077;49.704;9.908;2022-12-18T07:20:15;99571.78;;;-3.77
27826;BMP280;15077;49.704;9.908;2022-12-18T07:22:41;99574.44;;;-3.72
27826;BMP280;15077;49.704;9.908;2022-12-18T07:25:07;99569.59;;;-3.69
27826;BMP280;15077;49.704;9.908;2022-12-18T07:27:34;99573.84;;;-3.67
27826;BMP280;15077;49.704;9.908;2022-12-18T07:29:59;99583.09;;;-3.63
27826;BMP280;15077;49.704;9.908;2022-12-18T07:32:25;99584.81;;;-3.60
27826;BMP280;15077;49.704;9.908;2022-12-18T07:34:51;99592.41;;;-3.56
27826;BMP280;15077;49.704;9.908;2022-12-18T07:37:16;99595.00;;;-3.53
27826;BMP280;15077;49.704;9.908;2022-12-18T07:39:42;99597.66;;;-3.48
27826;BMP280;15077;49.704;9.908;2022-12-18T07:42:08;99596.16;;;-3.45
27826;BMP280;15077;49.704;9.908;2022-12-18T07:44:52;99591.31;;;-3.42
27826;BMP280;15077;49.704;9.908;2022-12-18T07:47:18;99588.94;;;-3.39
27826;BMP280;15077;49.704;9.908;2022-12-18T07:49:43;99592.50;;;-3.33
27826;BMP280;15077;49.704;9.908;2022-12-18T07:52:09;99593.44;;;-3.29
27826;BMP280;15077;49.704;9.908;2022-12-18T07:54:35;99591.97;;;-3.24
27826;BMP280;15077;49.704;9.908;2022-12-18T07:57:00;99604.59;;;-3.18
27826;BMP280;15077;49.704;9.908;2022-12-18T07:59:26;99591.47;;;-3.16
27826;BMP280;15077;49.704;9.908;2022-12-18T08:01:52;99592.38;;;-3.14
27826;BMP280;15077;49.704;9.908;2022-12-18T08:04:18;99585.09;;;-3.09
27826;BMP280;15077;49.704;9.908;2022-12-18T08:06:43;99600.13;;;-3.05
27826;BMP280;15077;49.704;9.908;2022-12-18T08:09:10;99599.47;;;-3.01
27826;BMP280;15077;49.704;9.908;2022-12-18T08:11:36;99602.88;;;-2.97
27826;BMP280;15077;49.704;9.908;2022-12-18T08:14:01;99607.19;;;-2.93
27826;BMP280;15077;49.704;9.908;2022-12-18T08:16:27;99604.91;;;-2.88
27826;BMP280;15077;49.704;9.908;2022-12-18T08:18:54;99612.50;;;-2.83
27826;BMP280;15077;49.704;9.908;2022-12-18T08:21:24;99608.50;;;-2.80
27826;BMP280;15077;49.704;9.908;2022-12-18T08:23:52;99611.13;;;-2.75
27826;BMP280;15077;49.704;9.908;2022-12-18T08:26:19;99602.28;;;-2.69
27826;BMP280;15077;49.704;9.908;2022-12-18T08:28:46;99606.53;;;-2.65
27826;BMP280;15077;49.704;9.908;2022-12-18T08:31:11;99608.41;;;-2.59
27826;BMP280;15077;49.704;9.908;2022-12-18T08:33:39;99607.72;;;-2.55
27826;BMP280;15077;49.704;9.908;2022-12-18T08:36:06;99608.72;;;-2.50
27826;BMP280;15077;49.704;9.908;2022-12-18T08:38:33;99598.16;;;-2.45
27826;BMP280;15077;49.704;9.908;2022-12-18T08:41:05;99589.97;;;-2.41
27826;BMP280;15077;49.704;9.908;2022-12-18T08:43:31;99602.50;;;-2.38
27826;BMP280;15077;49.704;9.908;2022-12-18T08:46:17;99594.31;;;-2.36
27826;BMP280;15077;49.704;9.908;2022-12-18T08:48:43;99597.88;;;-2.29
27826;BMP280;15077;49.704;9.908;2022-12-18T08:51:09;99596.38;;;-2.24
27826;BMP280;15077;49.704;9.908;2022-12-18T08:53:36;99585.75;;;-2.20
27826;BMP280;15077;49.704;9.908;2022-12-18T08:56:03;99590.91;;;-2.14
27826;BMP280;15077;49.704;9.908;2022-12-18T08:58:29;99587.66;;;-2.12
27826;BMP280;15077;49.704;9.908;2022-12-18T09:01:04;99590.34;;;-2.06
27826;BMP280;15077;49.704;9.908;2022-12-18T09:03:30;99597.09;;;-2.02
27826;BMP280;15077;49.704;9.908;2022-12-18T09:05:56;99587.31;;;-1.97
27826;BMP280;15077;49.704;9.908;2022-12-18T09:08:21;99589.97;;;-1.92
27826;BMP280;15077;49.704;9.908;2022-12-18T09:10:49;99588.47;;;-1.87
27826;BMP280;15077;49.704;9.908;2022-12-18T09:13:16;99596.94;;;-1.82
27826;BMP280;15077;49.704;9.908;2022-12-18T09:15:47;99590.44;;;-1.77
27826;BMP280;15077;49.704;9.908;2022-12-18T09:18:16;99582.31;;;-1.73
27826;BMP280;15077;49.704;9.908;2022-12-18T09:20:42;99586.56;;;-1.69
27826;BMP280;15077;49.704;9.908;2022-12-18T09:23:08;99585.13;;;-1.62
27826;BMP280;15077;49.704;9.908;2022-12-18T09:25:35;99576.97;;;-1.58
27826;BMP280;15077;49.704;9.908;2022-12-18T09:28:13;99577.88;;;-1.55
27826;BMP280;15077;49.704;9.908;2022-12-18T09:30:46;99573.00;;;-1.52
27826;BMP280;15077;49.704;9.908;2022-12-18T09:33:13;99570.56;;;-1.50
27826;BMP280;15077;49.704;9.908;2022-12-18T09:35:41;99583.97;;;-1.46
27826;BMP280;15077;49.704;9.908;2022-12-18T09:38:12;99573.34;;;-1.40
27826;BMP280;15077;49.704;9.908;2022-12-18T09:40:57;99566.81;;;-1.38
27826;BMP280;15077;49.704;9.908;2022-12-18T09:43:57;99564.44;;;-1.34
27826;BMP280;15077;49.704;9.908;2022-12-18T09:46:30;99554.66;;;-1.28
27826;BMP280;15077;49.704;9.908;2022-12-18T09:49:01;99553.97;;;-1.22
27826;BMP280;15077;49.704;9.908;2022-12-18T09:51:43;99555.84;;;-1.15
27826;BMP280;15077;49.704;9.908;2022-12-18T09:54:21;99552.66;;;-1.11
27826;BMP280;15077;49.704;9.908;2022-12-18T09:56:48;99546.94;;;-1.07
27826;BMP280;15077;49.704;9.908;2022-12-18T09:59:32;99548.75;;;-1.02
27826;BMP280;15077;49.704;9.908;2022-12-18T10:01:59;99551.41;;;-0.96
27826;BMP280;15077;49.704;9.908;2022-12-18T10:04:29;99560.69;;;-0.91
27826;BMP280;15077;49.704;9.908;2022-12-18T10:07:13;99566.63;;;-0.86
27826;BMP280;15077;49.704;9.908;2022-12-18T10:10:06;99563.50;;;-0.79
27826;BMP280;15077;49.704;9.908;2022-12-18T10:15:25;99572.09;;;-0.68
27826;BMP280;15077;49.704;9.908;2022-12-18T10:21:10;99565.91;;;-0.51
27826;BMP280;15077;49.704;9.908;2022-12-18T10:26:41;99559.44;;;-0.45
27826;BMP280;15077;49.704;9.908;2022-12-18T10:29:16;99547.13;;;-0.39
27826;BMP280;15077;49.704;9.908;2022-12-18T10:31:42;99544.66;;;-0.37
27826;BMP280;15077;49.704;9.908;2022-12-18T10:34:12;99543.19;;;-0.31
27826;BMP280;15077;49.704;9.908;2022-12-18T10:36:38;99542.44;;;-0.27
27826;BMP280;15077;49.704;9.908;2022-12-18T10:39:20;99535.97;;;-0.20
27826;BMP280;15077;49.704;9.908;2022-12-18T10:41:50;99539.38;;;-0.17
27826;BMP280;15077;49.704;9.908;2022-12-18T10:44:21;99536.19;;;-0.11
27826;BMP280;15077;49.704;9.908;2022-12-18T10:46:52;99542.09;;;-0.08
27826;BMP280;15077;49.704;9.908;2022-12-18T10:49:28;99531.38;;;-0.04
27826;BMP280;15077;49.704;9.908;2022-12-18T10:52:25;99544.72;;;-0.02
27826;BMP280;15077;49.704;9.908;2022-12-18T10:54:59;99545.72;;;0.04
27826;BMP280;15077;49.704;9.908;2022-12-18T10:57:35;99549.97;;;0.10
27826;BMP280;15077;49.704;9.908;2022-12-18T11:00:30;99543.44;;;0.13
27826;BMP280;15077;49.704;9.908;2022-12-18T11:02:56;99540.16;;;0.16
27826;BMP280;15077;49.704;9.908;2022-12-18T11:05:42;99534.47;;;0.21
27826;BMP280;15077;49.704;9.908;2022-12-18T11:08:20;99539.59;;;0.27
27826;BMP280;15077;49.704;9.908;2022-12-18T11:10:49;99538.91;;;0.33
27826;BMP280;15077;49.704;9.908;2022-12-18T11:13:25;99529.88;;;0.39
27826;BMP280;15077;49.704;9.908;2022-12-18T11:15:51;99520.00;;;0.44
27826;BMP280;15077;49.704;9.908;2022-12-18T11:18:32;99513.47;;;0.48
27826;BMP280;15077;49.704;9.908;2022-12-18T11:21:11;99501.06;;;0.51
27826;BMP280;15077;49.704;9.908;2022-12-18T11:23:52;99500.31;;;0.57
27826;BMP280;15077;49.704;9.908;2022-12-18T11:26:19;99487.09;;;0.61
27826;BMP280;15077;49.704;9.908;2022-12-18T11:29:09;99488.88;;;0.65
27826;BMP280;15077;49.704;9.908;2022-12-18T11:31:36;99489.72;;;0.67
27826;BMP280;15077;49.704;9.908;2022-12-18T11:37:13;99485.75;;;0.76
27826;BMP280;15077;49.704;9.908;2022-12-18T11:39:49;99482.53;;;0.82
27826;BMP280;15077;49.704;9.908;2022-12-18T11:42:35;99480.94;;;0.85
27826;BMP280;15077;49.704;9.908;2022-12-18T11:48:12;99481.13;;;0.94
27826;BMP280;15077;49.704;9.908;2022-12-18T11:50:59;99488.72;;;0.98
27826;BMP280;15077;49.704;9.908;2022-12-18T11:53:27;99486.31;;;1.04
27826;BMP280;15077;49.704;9.908;2022-12-18T11:58:54;99476.50;;;1.13
27826;BMP280;15077;49.704;9.908;2022-12-18T12:04:04;99467.38;;;1.17
27826;BMP280;15077;49.704;9.908;2022-12-18T12:09:39;99462.53;;;1.24
27826;BMP280;15077;49.704;9.908;2022-12-18T12:30:04;99433.91;;;1.54
27826;BMP280;15077;49.704;9.908;2022-12-18T12:36:18;99430.72;;;1.66
27826;BMP280;15077;49.704;9.908;2022-12-18T12:38:54;99430.91;;;1.78
27826;BMP280;15077;49.704;9.908;2022-12-18T12:41:27;99434.38;;;1.86
27826;BMP280;15077;49.704;9.908;2022-12-18T12:44:23;99435.31;;;1.92
27826;BMP280;15077;49.704;9.908;2022-12-18T12:46:55;99448.78;;;2.00
27826;BMP280;15077;49.704;9.908;2022-12-18T12:49:27;99440.50;;;2.07
27826;BMP280;15077;49.704;9.908;2022-12-18T12:52:10;99444.78;;;2.14
27826;BMP280;15077;49.704;9.908;2022-12-18T12:54:38;99443.16;;;2.17
27826;BMP280;15077;49.704;9.908;2022-12-18T12:57:37;99442.38;;;2.20
27826;BMP280;15077;49.704;9.908;2022-12-18T13:00:17;99433.22;;;2.23
27826;BMP280;15077;49.704;9.908;2022-12-18T13:05:40;99433.31;;;2.29
27826;BMP280;15077;49.704;9.908;2022-12-18T13:08:22;99434.19;;;2.31
27826;BMP280;15077;49.704;9.908;2022-12-18T13:10:48;99438.41;;;2.35
27826;BMP280;15077;49.704;9.908;2022-12-18T13:13:16;99428.44;;;2.38
27826;BMP280;15077;49.704;9.908;2022-12-18T13:16:03;99417.63;;;2.42
27826;BMP280;15077;49.704;9.908;2022-12-18T13:18:30;99413.53;;;2.45
27826;BMP280;15077;49.704;9.908;2022-12-18T13:25:52;99413.63;;;2.53
27826;BMP280;15077;49.704;9.908;2022-12-18T13:32:00;99411.97;;;2.55
27826;BMP280;15077;49.704;9.908;2022-12-18T13:34:18;99418.66;;;2.56
27826;BMP280;15077;49.704;9.908;2022-12-18T13:36:45;99415.31;;;2.57
27826;BMP280;15077;49.704;9.908;2022-12-18T13:41:41;99401.16;;;2.59
27826;BMP280;15077;49.704;9.908;2022-12-18T13:44:35;99400.31;;;2.58
27826;BMP280;15077;49.704;9.908;2022-12-18T13:47:04;99404.47;;;2.58
27826;BMP280;15077;49.704;9.908;2022-12-18T13:49:39;99389.47;;;2.58
27826;BMP280;15077;49.704;9.908;2022-12-18T13:52:43;99380.22;;;2.54
27826;BMP280;15077;49.704;9.908;2022-12-18T13:55:18;99379.44;;;2.56
27826;BMP280;15077;49.704;9.908;2022-12-18T13:57:44;99376.09;;;2.54
27826;BMP280;15077;49.704;9.908;2022-12-18T14:02:49;99389.44;;;2.55
27826;BMP280;15077;49.704;9.908;2022-12-18T14:05:32;99381.91;;;2.55
27826;BMP280;15077;49.704;9.908;2022-12-18T14:08:05;99385.25;;;2.54
27826;BMP280;15077;49.704;9.908;2022-12-18T14:10:32;99383.59;;;2.53
27826;BMP280;15077;49.704;9.908;2022-12-18T14:13:06;99381.91;;;2.55
27826;BMP280;15077;49.704;9.908;2022-12-18T14:15:43;99390.25;;;2.54
27826;BMP280;15077;49.704;9.908;2022-12-18T14:21:03;99413.63;;;2.53
27826;BMP280;15077;49.704;9.908;2022-12-18T14:23:39;99414.44;;;2.53
27826;BMP280;15077;49.704;9.908;2022-12-18T14:26:27;99426.97;;;2.53
27826;BMP280;15077;49.704;9.908;2022-12-18T14:29:01;99430.28;;;2.54
27826;BMP280;15077;49.704;9.908;2022-12-18T14:31:42;99419.44;;;2.53
27826;BMP280;15077;49.704;9.908;2022-12-18T14:34:16;99419.47;;;2.55
27826;BMP280;15077;49.704;9.908;2022-12-18T14:36:51;99423.66;;;2.56
27826;BMP280;15077;49.704;9.908;2022-12-18T14:39:17;99423.66;;;2.56
27826;BMP280;15077;49.704;9.908;2022-12-18T14:41:43;99420.28;;;2.55
27826;BMP280;15077;49.704;9.908;2022-12-18T14:44:12;99415.31;;;2.57
27826;BMP280;15077;49.704;9.908;2022-12-18T14:46:42;99415.31;;;2.57
27826;BMP280;15077;49.704;9.908;2022-12-18T14:49:40;99421.16;;;2.56
27826;BMP280;15077;49.704;9.908;2022-12-18T14:52:23;99423.66;;;2.56
27826;BMP280;15077;49.704;9.908;2022-12-18T14:54:51;99427.81;;;2.57
27826;BMP280;15077;49.704;9.908;2022-12-18T14:57:35;99421.97;;;2.55
27826;BMP280;15077;49.704;9.908;2022-12-18T15:00:20;99419.44;;;2.53
27826;BMP280;15077;49.704;9.908;2022-12-18T15:02:54;99420.28;;;2.54
27826;BMP280;15077;49.704;9.908;2022-12-18T15:05:27;99418.63;;;2.54
27826;BMP280;15077;49.704;9.908;2022-12-18T15:07:57;99421.94;;;2.53
27826;BMP280;15077;49.704;9.908;2022-12-18T15:10:27;99432.75;;;2.51
27826;BMP280;15077;49.704;9.908;2022-12-18T15:20:50;99432.75;;;2.51
27826;BMP280;15077;49.704;9.908;2022-12-18T15:23:28;99445.28;;;2.51
27826;BMP280;15077;49.704;9.908;2022-12-18T15:26:05;99430.22;;;2.49
27826;BMP280;15077;49.704;9.908;2022-12-18T15:28:44;99441.91;;;2.49
27826;BMP280;15077;49.704;9.908;2022-12-18T15:33:58;99426.91;;;2.49
27826;BMP280;15077;49.704;9.908;2022-12-18T15:36:26;99430.25;;;2.51
27826;BMP280;15077;49.704;9.908;2022-12-18T15:38:55;99418.59;;;2.50
27826;BMP280;15077;49.704;9.908;2022-12-18T15:41:23;99425.28;;;2.52
27826;BMP280;15077;49.704;9.908;2022-12-18T15:43:52;99421.94;;;2.52
27826;BMP280;15077;49.704;9.908;2022-12-18T15:46:22;99408.59;;;2.53
27826;BMP280;15077;49.704;9.908;2022-12-18T15:48:51;99416.97;;;2.55
27826;BMP280;15077;49.704;9.908;2022-12-18T15:53:51;99429.50;;;2.56
27826;BMP280;15077;49.704;9.908;2022-12-18T15:56:19;99426.97;;;2.55
27826;BMP280;15077;49.704;9.908;2022-12-18T15:59:10;99436.16;;;2.54
27826;BMP280;15077;49.704;9.908;2022-12-18T16:01:37;99431.16;;;2.56
27826;BMP280;15077;49.704;9.908;2022-12-18T16:04:03;99429.50;;;2.56
27826;BMP280;15077;49.704;9.908;2022-12-18T16:06:29;99427.81;;;2.57
27826;BMP280;15077;49.704;9.908;2022-12-18T16:08:55;99420.31;;;2.57
27826;BMP280;15077;49.704;9.908;2022-12-18T16:11:30;99420.31;;;2.57
27826;BMP280;15077;49.704;9.908;2022-12-18T16:14:19;99411.13;;;2.54
27826;BMP280;15077;49.704;9.908;2022-12-18T16:16:50;99416.94;;;2.52
27826;BMP280;15077;49.704;9.908;2022-12-18T16:19:18;99415.25;;;2.51
27826;BMP280;15077;49.704;9.908;2022-12-18T16:21:45;99408.59;;;2.51
27826;BMP280;15077;49.704;9.908;2022-12-18T16:24:24;99410.22;;;2.51
27826;BMP280;15077;49.704;9.908;2022-12-18T16:26:51;99406.88;;;2.49
27826;BMP280;15077;49.704;9.908;2022-12-18T16:29:19;99416.09;;;2.50